ASA66 PANC-PACV
Flight info
| Callsign | ASA66 |
|---|---|
| Flight time | 0h 36m |
| Altitude | 19000 |
| Route | NOEND JOH |
| Aircraft | B738/M-VGDW/C |
Departure
| Time | 2026-04-24 16:09 |
|---|---|
| Airport | Ted Stevens Anchorage International Airport (PANC) |
Arrival
| Time | 2026-04-24 16:46 |
|---|---|
| Airport | Merle K (Mudhole) Smith Airport (PACV) |
| Time | Latitude | Longitude | Altitude | Speed | Heading |
|---|---|---|---|---|---|
| 2026-04-24 15:49 | 61.17503 | -149.98449 | 129 ft | 0 kts | 83° |
| 2026-04-24 16:00 | 61.17501 | -149.98471 | 126 ft | 4 kts | 83° |
| 2026-04-24 16:00 | 61.17498 | -149.98526 | 126 ft | 4 kts | 82° |
| 2026-04-24 16:01 | 61.17496 | -149.98578 | 127 ft | 4 kts | 105° |
| 2026-04-24 16:01 | 61.17503 | -149.98608 | 127 ft | 4 kts | 138° |
| 2026-04-24 16:01 | 61.17522 | -149.98632 | 126 ft | 1 kts | 160° |
| 2026-04-24 16:01 | 61.17526 | -149.98636 | 127 ft | 0 kts | 160° |
| 2026-04-24 16:05 | 61.17499 | -149.98615 | 127 ft | 8 kts | 160° |
| 2026-04-24 16:05 | 61.17449 | -149.98577 | 131 ft | 8 kts | 160° |
| 2026-04-24 16:06 | 61.17319 | -149.98696 | 129 ft | 14 kts | 213° |
| 2026-04-24 16:06 | 61.17242 | -149.98803 | 129 ft | 13 kts | 214° |
| 2026-04-24 16:06 | 61.17128 | -149.99082 | 126 ft | 13 kts | 250° |
| 2026-04-24 16:07 | 61.17126 | -149.99259 | 126 ft | 12 kts | 271° |
| 2026-04-24 16:07 | 61.17125 | -149.99433 | 126 ft | 12 kts | 269° |
| 2026-04-24 16:07 | 61.17123 | -149.99766 | 125 ft | 11 kts | 270° |
| 2026-04-24 16:08 | 61.17135 | -149.99865 | 125 ft | 5 kts | 322° |
| 2026-04-24 16:08 | 61.17152 | -149.99876 | 125 ft | 6 kts | 345° |
| 2026-04-24 16:09 | 61.18106 | -150.00409 | 123 ft | 137 kts | 345° |
| 2026-04-24 16:09 | 61.19173 | -150.00983 | 420 ft | 166 kts | 345° |
| 2026-04-24 16:09 | 61.20269 | -150.01779 | 1147 ft | 179 kts | 332° |
| 2026-04-24 16:09 | 61.21347 | -150.03259 | 1828 ft | 187 kts | 326° |
| 2026-04-24 16:10 | 61.25049 | -150.08522 | 2792 ft | 246 kts | 326° |
| 2026-04-24 16:11 | 61.28074 | -150.12477 | 3671 ft | 265 kts | 345° |
| 2026-04-24 16:11 | 61.29869 | -150.12664 | 4378 ft | 256 kts | 21° |
| 2026-04-24 16:11 | 61.31410 | -150.11027 | 5057 ft | 247 kts | 48° |
| 2026-04-24 16:12 | 61.33848 | -150.05872 | 6294 ft | 256 kts | 54° |
| 2026-04-24 16:12 | 61.34964 | -150.02980 | 6894 ft | 254 kts | 71° |
| 2026-04-24 16:12 | 61.34892 | -149.96137 | 7837 ft | 249 kts | 123° |
| 2026-04-24 16:13 | 61.33857 | -149.93216 | 8345 ft | 253 kts | 136° |
| 2026-04-24 16:13 | 61.31385 | -149.87829 | 9700 ft | 261 kts | 139° |
| 2026-04-24 16:14 | 61.28773 | -149.82091 | 10406 ft | 292 kts | 137° |
| 2026-04-24 16:14 | 61.27339 | -149.78891 | 10569 ft | 313 kts | 133° |
| 2026-04-24 16:14 | 61.25657 | -149.69871 | 11086 ft | 354 kts | 108° |
| 2026-04-24 16:15 | 61.25261 | -149.66574 | 11441 ft | 357 kts | 108° |
| 2026-04-24 16:15 | 61.23922 | -149.54641 | 12791 ft | 370 kts | 107° |
| 2026-04-24 16:16 | 61.22904 | -149.44071 | 14109 ft | 376 kts | 107° |
| 2026-04-24 16:16 | 61.22369 | -149.38712 | 14664 ft | 382 kts | 107° |
| 2026-04-24 16:17 | 61.20765 | -149.22127 | 16263 ft | 400 kts | 108° |
| 2026-04-24 16:17 | 61.19672 | -149.10716 | 16986 ft | 413 kts | 108° |
| 2026-04-24 16:18 | 61.18513 | -148.98727 | 17072 ft | 430 kts | 107° |
| 2026-04-24 16:18 | 61.17334 | -148.86667 | 17730 ft | 424 kts | 108° |
| 2026-04-24 16:18 | 61.16743 | -148.80699 | 18241 ft | 423 kts | 109° |
| 2026-04-24 16:19 | 61.15553 | -148.68780 | 19100 ft | 426 kts | 109° |
| 2026-04-24 16:19 | 61.14953 | -148.62824 | 19050 ft | 428 kts | 109° |
| 2026-04-24 16:20 | 61.13734 | -148.50739 | 19093 ft | 427 kts | 110° |
| 2026-04-24 16:20 | 61.11233 | -148.40256 | 19115 ft | 402 kts | 135° |
| 2026-04-24 16:20 | 61.09576 | -148.35574 | 19146 ft | 403 kts | 134° |
| 2026-04-24 16:21 | 61.06345 | -148.26085 | 19167 ft | 403 kts | 133° |
| 2026-04-24 16:21 | 61.04740 | -148.21330 | 19148 ft | 403 kts | 133° |
| 2026-04-24 16:21 | 61.03142 | -148.16593 | 19171 ft | 402 kts | 133° |
| 2026-04-24 16:22 | 61.01542 | -148.11873 | 19205 ft | 401 kts | 133° |
| 2026-04-24 16:22 | 60.98327 | -148.02438 | 19258 ft | 406 kts | 133° |
| 2026-04-24 16:22 | 60.96689 | -147.97660 | 19268 ft | 410 kts | 133° |
| 2026-04-24 16:23 | 60.95049 | -147.92876 | 19277 ft | 408 kts | 133° |
| 2026-04-24 16:23 | 60.93412 | -147.88094 | 19283 ft | 408 kts | 133° |
| 2026-04-24 16:23 | 60.91760 | -147.83359 | 19276 ft | 408 kts | 133° |
| 2026-04-24 16:24 | 60.88494 | -147.73855 | 19291 ft | 406 kts | 133° |
| 2026-04-24 16:24 | 60.86878 | -147.69183 | 19281 ft | 406 kts | 133° |
| 2026-04-24 16:24 | 60.85238 | -147.64456 | 19270 ft | 406 kts | 133° |
| 2026-04-24 16:24 | 60.83602 | -147.59735 | 19291 ft | 406 kts | 133° |
| 2026-04-24 16:25 | 60.81955 | -147.55012 | 19280 ft | 407 kts | 133° |
| 2026-04-24 16:25 | 60.80310 | -147.50307 | 19256 ft | 407 kts | 133° |
| 2026-04-24 16:25 | 60.78659 | -147.45595 | 19279 ft | 406 kts | 133° |
| 2026-04-24 16:26 | 60.75363 | -147.36212 | 19276 ft | 406 kts | 133° |
| 2026-04-24 16:26 | 60.73712 | -147.31524 | 19277 ft | 406 kts | 133° |
| 2026-04-24 16:26 | 60.70407 | -147.22166 | 19285 ft | 406 kts | 133° |
| 2026-04-24 16:27 | 60.68752 | -147.17494 | 19288 ft | 406 kts | 133° |
| 2026-04-24 16:27 | 60.67096 | -147.12829 | 19285 ft | 406 kts | 133° |
| 2026-04-24 16:27 | 60.65438 | -147.08166 | 19284 ft | 406 kts | 133° |
| 2026-04-24 16:27 | 60.63780 | -147.03511 | 19272 ft | 406 kts | 133° |
| 2026-04-24 16:28 | 60.62116 | -146.98851 | 19234 ft | 406 kts | 134° |
| 2026-04-24 16:28 | 60.60461 | -146.94231 | 19254 ft | 399 kts | 134° |
| 2026-04-24 16:28 | 60.57293 | -146.85362 | 19255 ft | 377 kts | 134° |
| 2026-04-24 16:29 | 60.55776 | -146.81137 | 19252 ft | 364 kts | 135° |
| 2026-04-24 16:29 | 60.54311 | -146.77066 | 19246 ft | 350 kts | 135° |
| 2026-04-24 16:29 | 60.51484 | -146.69256 | 18818 ft | 336 kts | 135° |
| 2026-04-24 16:30 | 60.48749 | -146.61585 | 17646 ft | 338 kts | 129° |
| 2026-04-24 16:30 | 60.47700 | -146.57276 | 17131 ft | 344 kts | 118° |
| 2026-04-24 16:30 | 60.46974 | -146.52604 | 16535 ft | 347 kts | 113° |
| 2026-04-24 16:31 | 60.46323 | -146.47930 | 16131 ft | 341 kts | 113° |
| 2026-04-24 16:31 | 60.45692 | -146.43339 | 15587 ft | 336 kts | 113° |
| 2026-04-24 16:31 | 60.45063 | -146.38799 | 15051 ft | 333 kts | 113° |
| 2026-04-24 16:31 | 60.44436 | -146.34328 | 14625 ft | 327 kts | 113° |
| 2026-04-24 16:32 | 60.44027 | -146.31427 | 14395 ft | 321 kts | 113° |
| 2026-04-24 16:32 | 60.43214 | -146.25705 | 13918 ft | 311 kts | 113° |
| 2026-04-24 16:32 | 60.42625 | -146.21585 | 13634 ft | 300 kts | 114° |
| 2026-04-24 16:32 | 60.42054 | -146.17588 | 13325 ft | 291 kts | 114° |
| 2026-04-24 16:33 | 60.41502 | -146.13694 | 13003 ft | 285 kts | 113° |
| 2026-04-24 16:33 | 60.40960 | -146.09936 | 12616 ft | 279 kts | 114° |
| 2026-04-24 16:33 | 60.40407 | -146.06202 | 12192 ft | 276 kts | 114° |
| 2026-04-24 16:33 | 60.39861 | -146.02501 | 11797 ft | 273 kts | 114° |
| 2026-04-24 16:34 | 60.39323 | -145.98843 | 11411 ft | 270 kts | 114° |
| 2026-04-24 16:34 | 60.38791 | -145.95230 | 11033 ft | 266 kts | 114° |
| 2026-04-24 16:34 | 60.38266 | -145.91662 | 10649 ft | 263 kts | 114° |
| 2026-04-24 16:34 | 60.37746 | -145.88137 | 10284 ft | 260 kts | 114° |
| 2026-04-24 16:35 | 60.37231 | -145.84655 | 9890 ft | 257 kts | 114° |
| 2026-04-24 16:35 | 60.36722 | -145.81215 | 9491 ft | 253 kts | 114° |
| 2026-04-24 16:35 | 60.36221 | -145.77831 | 9100 ft | 250 kts | 113° |
| 2026-04-24 16:35 | 60.35720 | -145.74467 | 8629 ft | 250 kts | 113° |
| 2026-04-24 16:36 | 60.35227 | -145.71143 | 8414 ft | 246 kts | 112° |
| 2026-04-24 16:36 | 60.34734 | -145.67838 | 8159 ft | 245 kts | 112° |
| 2026-04-24 16:36 | 60.34244 | -145.64558 | 7935 ft | 243 kts | 112° |
| 2026-04-24 16:36 | 60.33756 | -145.61294 | 7708 ft | 242 kts | 112° |
| 2026-04-24 16:37 | 60.33270 | -145.58055 | 7465 ft | 240 kts | 112° |
| 2026-04-24 16:37 | 60.32788 | -145.54843 | 7248 ft | 238 kts | 111° |
| 2026-04-24 16:37 | 60.32470 | -145.52727 | 7087 ft | 238 kts | 111° |
| 2026-04-24 16:37 | 60.31830 | -145.48478 | 6782 ft | 236 kts | 111° |
| 2026-04-24 16:38 | 60.31353 | -145.45322 | 6537 ft | 235 kts | 110° |
| 2026-04-24 16:38 | 60.30881 | -145.42188 | 6309 ft | 233 kts | 110° |
| 2026-04-24 16:38 | 60.30410 | -145.39073 | 6047 ft | 232 kts | 110° |
| 2026-04-24 16:38 | 60.29937 | -145.35969 | 5817 ft | 231 kts | 110° |
| 2026-04-24 16:39 | 60.29464 | -145.32865 | 5543 ft | 231 kts | 110° |
| 2026-04-24 16:39 | 60.29020 | -145.29768 | 5284 ft | 231 kts | 103° |
| 2026-04-24 16:39 | 60.29143 | -145.26525 | 5019 ft | 239 kts | 77° |
| 2026-04-24 16:39 | 60.29975 | -145.23579 | 4779 ft | 249 kts | 56° |
| 2026-04-24 16:40 | 60.31372 | -145.21416 | 4548 ft | 258 kts | 37° |
| 2026-04-24 16:40 | 60.32962 | -145.19766 | 4277 ft | 256 kts | 34° |
| 2026-04-24 16:40 | 60.34546 | -145.18199 | 4034 ft | 250 kts | 35° |
| 2026-04-24 16:40 | 60.36074 | -145.16669 | 3819 ft | 239 kts | 35° |
| 2026-04-24 16:41 | 60.37527 | -145.15194 | 3587 ft | 228 kts | 36° |
| 2026-04-24 16:41 | 60.38909 | -145.13779 | 3347 ft | 218 kts | 29° |
| 2026-04-24 16:41 | 60.40340 | -145.13053 | 3123 ft | 211 kts | 356° |
| 2026-04-24 16:41 | 60.41641 | -145.14105 | 2972 ft | 199 kts | 320° |
| 2026-04-24 16:42 | 60.42535 | -145.16166 | 2788 ft | 193 kts | 296° |
| 2026-04-24 16:42 | 60.43040 | -145.18601 | 2622 ft | 190 kts | 288° |
| 2026-04-24 16:42 | 60.43513 | -145.21072 | 2385 ft | 183 kts | 288° |
| 2026-04-24 16:42 | 60.43913 | -145.23410 | 2221 ft | 170 kts | 287° |
| 2026-04-24 16:43 | 60.44343 | -145.25564 | 2109 ft | 159 kts | 291° |
| 2026-04-24 16:43 | 60.44772 | -145.27528 | 1979 ft | 151 kts | 292° |
| 2026-04-24 16:43 | 60.45201 | -145.29499 | 1787 ft | 156 kts | 289° |
| 2026-04-24 16:43 | 60.45624 | -145.31491 | 1615 ft | 153 kts | 294° |
| 2026-04-24 16:44 | 60.46071 | -145.33444 | 1418 ft | 152 kts | 293° |
| 2026-04-24 16:44 | 60.46503 | -145.35398 | 1209 ft | 152 kts | 292° |
| 2026-04-24 16:44 | 60.46927 | -145.37318 | 1026 ft | 148 kts | 291° |
| 2026-04-24 16:44 | 60.47347 | -145.39222 | 820 ft | 147 kts | 292° |
| 2026-04-24 16:45 | 60.47759 | -145.41095 | 651 ft | 144 kts | 291° |
| 2026-04-24 16:45 | 60.48166 | -145.42934 | 418 ft | 142 kts | 291° |
| 2026-04-24 16:45 | 60.48569 | -145.44751 | 240 ft | 141 kts | 292° |
| 2026-04-24 16:45 | 60.48972 | -145.46527 | 107 ft | 133 kts | 293° |
| 2026-04-24 16:46 | 60.49303 | -145.48017 | 90 ft | 91 kts | 294° |
| 2026-04-24 16:46 | 60.49487 | -145.48835 | 86 ft | 37 kts | 297° |
| 2026-04-24 16:46 | 60.49529 | -145.48986 | 88 ft | 0 kts | 303° |
| 2026-04-24 16:46 | 60.49538 | -145.49029 | 88 ft | 2 kts | 255° |
| 2026-04-24 16:47 | 60.49524 | -145.49034 | 88 ft | 2 kts | 163° |
| 2026-04-24 16:47 | 60.49515 | -145.48995 | 89 ft | 6 kts | 107° |
| 2026-04-24 16:47 | 60.49490 | -145.48857 | 86 ft | 12 kts | 113° |
| 2026-04-24 16:47 | 60.49456 | -145.48703 | 87 ft | 12 kts | 115° |
| 2026-04-24 16:48 | 60.49417 | -145.48525 | 86 ft | 15 kts | 114° |
| 2026-04-24 16:48 | 60.49388 | -145.48396 | 87 ft | 15 kts | 114° |
| 2026-04-24 16:48 | 60.49346 | -145.48209 | 88 ft | 14 kts | 114° |
| 2026-04-24 16:48 | 60.49306 | -145.48029 | 90 ft | 14 kts | 114° |
| 2026-04-24 16:49 | 60.49258 | -145.47816 | 90 ft | 19 kts | 114° |
| 2026-04-24 16:49 | 60.49224 | -145.47640 | 93 ft | 11 kts | 102° |
| 2026-04-24 16:49 | 60.49262 | -145.47530 | 93 ft | 10 kts | 24° |
| 2026-04-24 16:49 | 60.49326 | -145.47471 | 95 ft | 10 kts | 24° |
| 2026-04-24 16:50 | 60.49361 | -145.47438 | 96 ft | 8 kts | 24° |
| 2026-04-24 16:50 | 60.49370 | -145.47430 | 94 ft | 0 kts | 24° |
| 2026-04-24 16:50 | 60.49392 | -145.47406 | 93 ft | 6 kts | 37° |
| 2026-04-24 16:50 | 60.49415 | -145.47344 | 94 ft | 6 kts | 64° |
| 2026-04-24 16:51 | 60.49414 | -145.47264 | 94 ft | 1 kts | 118° |